PWSweather.com
Personal Weather Stations
Station Observations
KPAEXPOR2
Wellington Estates, Export, PA 15632

Wellington EstatesExport, PA 15632

Lat: 40.446, Lon: -79.592

Elevation: 1286

Station Type: PWS1000-TD

http://www.westmorelandweather.com

Latest ConditionsUpdated 6:15:00 AM EDT Saturday, May 25, 2019
Currently Today's Max Today's Min Today's Average
Temperature 58.2°F14.6°C 62.9°F17.2°C 58.0°F14.4°C 59.8°F15.4°C
Dew Point 49.2°F9.6°C 49.2°F9.6°C 47.9°F8.8°C 48.5°F9.2°C
Winds Calm Calm 0.3 mph -0.5 kmh - - 0.0 mph 0.0 kmh
Wind Gusts -- 1.6 mph2.6 kmh - -
Humidity 72% 72% 58% 66%
Pressure 30.23 in1023.7 mb 30.25 in1024.4 mb 30.22 in1023.4 mb -
Hour Temp Dew Point Humidity Winds Wind Gusts Pressure Precip Precip Rate Daily Precip Total
06:15 AM 58.2°F14.6°C 49.2°F9.6°C 72% Calm Calm -- 30.23 in1023.7 mb 0.00 in0.0 mm 0.00 in0.0 mm 0.00 in0.0 mm
06:00 AM 58.0°F14.4°C 49.0°F9.4°C 72% Calm Calm -- 30.23 in1023.7 mb 0.00 in0.0 mm 0.00 in0.0 mm 0.00 in0.0 mm
05:45 AM 58.2°F14.6°C 48.8°F9.3°C 71% Calm Calm -- 30.23 in1023.7 mb 0.00 in0.0 mm 0.00 in0.0 mm 0.00 in0.0 mm
05:30 AM 58.2°F14.6°C 48.8°F9.3°C 71% Calm Calm -- 30.23 in1023.7 mb 0.00 in0.0 mm 0.00 in0.0 mm 0.00 in0.0 mm
05:15 AM 58.2°F14.6°C 48.4°F9.1°C 70% Calm Calm -- 30.23 in1023.7 mb 0.00 in0.0 mm 0.00 in0.0 mm 0.00 in0.0 mm
05:00 AM 58.4°F14.7°C 48.6°F9.2°C 70% Calm Calm -- 30.23 in1023.7 mb 0.00 in0.0 mm 0.00 in0.0 mm 0.00 in0.0 mm
04:45 AM 58.5°F14.7°C 48.8°F9.3°C 70% Calm Calm -- 30.23 in1023.7 mb 0.00 in0.0 mm 0.00 in0.0 mm 0.00 in0.0 mm
04:30 AM 58.5°F14.7°C 48.8°F9.3°C 70% Calm Calm -- 30.23 in1023.7 mb 0.00 in0.0 mm 0.00 in0.0 mm 0.00 in0.0 mm
04:15 AM 58.7°F14.8°C 48.6°F9.2°C 69% 0.2 mph N0.3 kmh N 1.6 mph2.6 kmh 30.23 in1023.7 mb 0.00 in0.0 mm 0.00 in0.0 mm 0.00 in0.0 mm
04:00 AM 58.7°F14.8°C 48.6°F9.2°C 69% Calm Calm -- 30.23 in1023.7 mb 0.00 in0.0 mm 0.00 in0.0 mm 0.00 in0.0 mm
03:45 AM 58.9°F14.9°C 48.4°F9.1°C 68% Calm Calm -- 30.24 in1024.0 mb 0.00 in0.0 mm 0.00 in0.0 mm 0.00 in0.0 mm
03:30 AM 58.9°F14.9°C 48.4°F9.1°C 68% Calm Calm -- 30.23 in1023.7 mb 0.00 in0.0 mm 0.00 in0.0 mm 0.00 in0.0 mm
03:15 AM 59.1°F15.1°C 48.5°F9.2°C 68% Calm Calm -- 30.23 in1023.7 mb 0.00 in0.0 mm 0.00 in0.0 mm 0.00 in0.0 mm
03:00 AM 59.1°F15.1°C 48.1°F8.9°C 67% Calm Calm -- 30.22 in1023.4 mb 0.00 in0.0 mm 0.00 in0.0 mm 0.00 in0.0 mm
02:45 AM 59.4°F15.2°C 48.1°F8.9°C 66% Calm Calm -- 30.23 in1023.7 mb 0.00 in0.0 mm 0.00 in0.0 mm 0.00 in0.0 mm
02:30 AM 60.0°F15.6°C 48.2°F9.0°C 65% Calm Calm -- 30.23 in1023.7 mb 0.00 in0.0 mm 0.00 in0.0 mm 0.00 in0.0 mm
02:15 AM 60.0°F15.6°C 48.2°F9.0°C 65% 0.1 mph N0.2 kmh N 0.7 mph1.1 kmh 30.23 in1023.7 mb 0.00 in0.0 mm 0.00 in0.0 mm 0.00 in0.0 mm
02:00 AM 60.5°F15.8°C 47.9°F8.8°C 63% Calm Calm -- 30.23 in1023.7 mb 0.00 in0.0 mm 0.00 in0.0 mm 0.00 in0.0 mm
01:45 AM 60.9°F16.1°C 48.2°F9.0°C 63% 0.1 mph N0.2 kmh N 0.7 mph1.1 kmh 30.24 in1024.0 mb 0.00 in0.0 mm 0.00 in0.0 mm 0.00 in0.0 mm
01:30 AM 61.1°F16.2°C 47.9°F8.8°C 62% Calm Calm -- 30.24 in1024.0 mb 0.00 in0.0 mm 0.00 in0.0 mm 0.00 in0.0 mm
01:15 AM 61.2°F16.2°C 48.5°F9.2°C 63% Calm Calm -- 30.24 in1024.0 mb 0.00 in0.0 mm 0.00 in0.0 mm 0.00 in0.0 mm
01:00 AM 61.6°F16.4°C 48.9°F9.4°C 63% 0.1 mph N0.2 kmh N 0.7 mph1.1 kmh 30.25 in1024.4 mb 0.00 in0.0 mm 0.00 in0.0 mm 0.00 in0.0 mm
12:45 AM 62.0°F16.7°C 48.8°F9.3°C 62% 0.3 mph S0.5 kmh S 1.6 mph2.6 kmh 30.25 in1024.4 mb 0.00 in0.0 mm 0.00 in0.0 mm 0.00 in0.0 mm
12:30 AM 62.3°F16.8°C 48.3°F9.1°C 60% Calm Calm -- 30.25 in1024.4 mb 0.00 in0.0 mm 0.00 in0.0 mm 0.00 in0.0 mm
12:15 AM 62.3°F16.8°C 48.3°F9.1°C 60% Calm Calm -- 30.25 in1024.4 mb 0.00 in0.0 mm 0.00 in0.0 mm 0.00 in0.0 mm
12:00 AM 62.9°F17.2°C 47.9°F8.8°C 58% Calm Calm -- 30.25 in1024.4 mb 0.00 in0.0 mm 0.00 in0.0 mm 0.00 in0.0 mm